Time;durP1;ratioP1;P1;durP2;ratioP2;P2;SDS_P1;SDS_P2;PMS_P1;PMS_P2;Temp;Humidity;BMP_temperature;BMP_pressure;BME280_temperature;BME280_humidity;BME280_pressure;Samples;Min_cycle;Max_cycle;Signal;HPM_P1;HPM_P2
2022/10/21 00:00:23;;;;;;;20.23;11.65;;;;;;;12.79;100.00;98531.16;5066994;28;20017;-74
2022/10/21 00:02:48;;;;;;;21.42;11.20;;;;;;;12.69;100.00;98534.38;5061987;28;20032;-75
2022/10/21 00:05:13;;;;;;;19.65;10.68;;;;;;;12.56;100.00;98530.97;5061077;28;20054;-75
2022/10/21 00:07:39;;;;;;;20.85;11.95;;;;;;;12.59;100.00;98560.38;5061286;28;20041;-74
2022/10/21 00:10:05;;;;;;;18.33;11.77;;;;;;;12.52;100.00;98549.56;5066439;28;20031;-77
2022/10/21 00:12:31;;;;;;;26.20;11.65;;;;;;;12.58;100.00;98569.56;5062086;28;20059;-75
2022/10/21 00:14:57;;;;;;;21.90;11.93;;;;;;;12.46;100.00;98562.13;5052806;28;20021;-74
2022/10/21 00:17:22;;;;;;;23.17;13.00;;;;;;;12.43;100.00;98562.56;5044561;28;20048;-76
2022/10/21 00:19:47;;;;;;;25.92;12.65;;;;;;;12.43;100.00;98554.44;5044794;28;20560;-75
2022/10/21 00:22:13;;;;;;;21.10;11.80;;;;;;;12.37;100.00;98565.34;5048619;28;20025;-75
2022/10/21 00:24:38;;;;;;;20.95;11.95;;;;;;;12.28;100.00;98562.06;5047493;28;20025;-75
2022/10/21 00:27:03;;;;;;;25.52;11.80;;;;;;;12.43;100.00;98581.56;5043947;28;20025;-75
2022/10/21 00:29:29;;;;;;;27.30;13.15;;;;;;;12.36;100.00;98572.63;5046565;28;20029;-75
2022/10/21 00:31:54;;;;;;;25.17;12.10;;;;;;;12.33;100.00;98573.09;5041219;28;20025;-74
2022/10/21 00:34:21;;;;;;;20.98;11.93;;;;;;;12.33;100.00;98586.66;5046708;28;20021;-75
2022/10/21 00:36:46;;;;;;;28.23;12.95;;;;;;;12.22;100.00;98576.50;5046817;28;20029;-74
2022/10/21 00:39:11;;;;;;;18.13;10.93;;;;;;;12.25;100.00;98582.31;5042049;28;20066;-74
2022/10/21 00:41:37;;;;;;;26.90;12.10;;;;;;;12.17;100.00;98569.03;5047982;28;20036;-75
2022/10/21 00:44:06;;;;;;;24.85;12.48;;;;;;;12.20;100.00;98567.75;5050331;28;20049;-74
2022/10/21 00:46:52;;;;;;;24.92;12.80;;;;;;;12.34;100.00;98563.91;5046807;28;20112;-74
2022/10/21 00:49:44;;;;;;;23.38;11.50;;;;;;;12.21;100.00;98569.44;5045282;28;20029;-74
2022/10/21 00:52:17;;;;;;;22.38;11.77;;;;;;;12.32;100.00;98554.34;5033009;28;20045;-74
2022/10/21 00:54:43;;;;;;;21.17;11.00;;;;;;;12.25;100.00;98532.69;5046271;28;20040;-74
2022/10/21 00:57:10;;;;;;;22.60;11.00;;;;;;;12.25;100.00;98543.53;5043684;28;20028;-75
2022/10/21 00:59:41;;;;;;;25.98;11.35;;;;;;;12.30;100.00;98551.84;5042793;28;20029;-74
2022/10/21 01:02:06;;;;;;;26.50;12.45;;;;;;;12.31;100.00;98561.63;5042089;28;20387;-76
2022/10/21 01:04:32;;;;;;;23.75;12.18;;;;;;;12.20;100.00;98554.19;5051715;28;20036;-74
2022/10/21 01:06:59;;;;;;;28.63;13.57;;;;;;;12.10;100.00;98534.88;5051067;28;20018;-75
2022/10/21 01:09:25;;;;;;;21.38;12.50;;;;;;;12.11;100.00;98534.66;5044671;28;20087;-75
2022/10/21 01:11:51;;;;;;;25.10;13.05;;;;;;;12.12;100.00;98543.63;5041003;28;20029;-76
2022/10/21 01:14:38;;;;;;;26.60;12.43;;;;;;;12.02;100.00;98528.66;5042736;28;20104;-74
2022/10/21 01:17:20;;;;;;;32.15;14.05;;;;;;;12.01;100.00;98532.44;5031738;28;20112;-75
2022/10/21 01:20:30;;;;;;;25.58;11.95;;;;;;;12.05;100.00;98540.94;5048067;28;20025;-76
2022/10/21 01:23:04;;;;;;;27.55;12.65;;;;;;;12.11;100.00;98541.97;5047770;28;20142;-74
2022/10/21 01:25:57;;;;;;;22.08;12.68;;;;;;;12.21;100.00;98542.31;5047668;28;20032;-76
2022/10/21 01:28:54;;;;;;;22.20;11.98;;;;;;;12.39;100.00;98541.53;5045924;28;20027;-75
2022/10/21 01:31:27;;;;;;;23.83;13.57;;;;;;;12.43;100.00;98542.75;5060627;28;20407;-75
2022/10/21 01:33:55;;;;;;;17.58;10.25;;;;;;;12.43;100.00;98532.72;5051930;28;20056;-75
2022/10/21 01:36:32;;;;;;;23.05;11.20;;;;;;;12.37;100.00;98516.53;5050011;28;20102;-76
2022/10/21 01:39:40;;;;;;;22.30;10.98;;;;;;;12.55;100.00;98518.44;5048143;28;20188;-76
2022/10/21 01:42:26;;;;;;;22.23;9.70;;;;;;;12.50;100.00;98514.50;5038179;28;20554;-75
2022/10/21 01:45:08;;;;;;;14.65;9.52;;;;;;;12.34;100.00;98501.53;5054703;28;20440;-75
2022/10/21 01:47:38;;;;;;;19.33;10.35;;;;;;;12.20;100.00;98497.25;5050251;28;20029;-76
2022/10/21 01:50:15;;;;;;;20.60;10.13;;;;;;;12.23;100.00;98502.22;5049925;28;20136;-75
2022/10/21 01:52:45;;;;;;;17.92;9.98;;;;;;;12.13;100.00;98493.75;5049384;28;20159;-75
2022/10/21 01:55:16;;;;;;;18.45;10.45;;;;;;;12.00;100.00;98475.72;5047486;28;20022;-75
2022/10/21 01:57:48;;;;;;;22.73;10.35;;;;;;;12.26;100.00;98491.78;5053880;28;20086;-75
2022/10/21 02:00:14;;;;;;;16.17;10.50;;;;;;;12.33;100.00;98475.44;5047601;28;20025;-75
2022/10/21 02:02:44;;;;;;;20.33;10.32;;;;;;;12.18;100.00;98464.09;5048609;28;20040;-75
2022/10/21 02:05:17;;;;;;;21.08;9.98;;;;;;;12.20;100.00;98465.53;5046647;28;20398;-75
2022/10/21 02:07:42;;;;;;;18.70;10.48;;;;;;;12.17;100.00;98467.84;5054161;28;20388;-75
2022/10/21 02:10:08;;;;;;;18.08;10.35;;;;;;;12.01;100.00;98467.34;5045677;28;20026;-75
2022/10/21 02:12:35;;;;;;;17.60;10.40;;;;;;;12.03;100.00;98486.94;5050871;28;20029;-76
2022/10/21 02:15:05;;;;;;;30.40;11.68;;;;;;;12.03;100.00;98476.09;5044593;28;20132;-76
2022/10/21 02:17:32;;;;;;;19.10;11.40;;;;;;;12.17;100.00;98489.56;5048414;28;20116;-76
2022/10/21 02:20:01;;;;;;;21.85;10.38;;;;;;;12.33;100.00;98485.44;5042958;28;20088;-76
2022/10/21 02:22:27;;;;;;;19.65;9.55;;;;;;;12.66;100.00;98458.00;5044786;28;20164;-75
2022/10/21 02:25:16;;;;;;;18.08;8.63;;;;;;;12.86;100.00;98431.47;5044063;28;20127;-75
2022/10/21 02:27:41;;;;;;;23.73;9.10;;;;;;;12.93;100.00;98434.91;5050179;28;20051;-75
2022/10/21 02:30:07;;;;;;;18.67;8.68;;;;;;;12.81;100.00;98420.47;5044582;28;20059;-74
2022/10/21 02:32:44;;;;;;;16.02;8.57;;;;;;;12.94;100.00;98427.59;5050856;28;20040;-75
2022/10/21 02:35:31;;;;;;;16.00;9.10;;;;;;;12.96;100.00;98413.78;5041666;28;20033;-75
2022/10/21 02:38:04;;;;;;;14.02;8.60;;;;;;;12.94;100.00;98393.13;5044293;28;20112;-74
2022/10/21 02:40:42;;;;;;;16.35;9.57;;;;;;;13.15;100.00;98393.69;5049853;28;20033;-76
2022/10/21 02:43:24;;;;;;;16.33;8.70;;;;;;;13.26;100.00;98373.06;5046229;28;20032;-75
2022/10/21 02:45:49;;;;;;;22.35;8.98;;;;;;;13.30;100.00;98366.97;5045443;28;20033;-75
2022/10/21 02:48:15;;;;;;;15.25;7.85;;;;;;;13.47;100.00;98366.31;5041317;28;20032;-75
2022/10/21 02:50:40;;;;;;;21.50;10.02;;;;;;;13.49;100.00;98358.72;5048547;28;20028;-74
2022/10/21 02:53:09;;;;;;;21.02;8.30;;;;;;;13.46;100.00;98341.00;5051851;28;20033;-75
2022/10/21 02:55:34;;;;;;;13.10;7.70;;;;;;;13.63;100.00;98352.03;5052824;28;20094;-76
2022/10/21 02:57:59;;;;;;;16.15;7.90;;;;;;;13.58;100.00;98330.16;5057685;22;20058;-75
2022/10/21 03:00:24;;;;;;;17.35;8.38;;;;;;;13.55;100.00;98342.34;4974211;28;20022;-75
2022/10/21 03:02:50;;;;;;;17.52;8.80;;;;;;;13.58;100.00;98332.88;4983944;28;20030;-75
2022/10/21 03:05:15;;;;;;;15.68;7.93;;;;;;;13.54;100.00;98318.91;4987734;28;20069;-78
2022/10/21 03:07:41;;;;;;;15.20;8.05;;;;;;;13.55;100.00;98309.72;4974995;28;20030;-77
2022/10/21 03:10:06;;;;;;;13.20;7.75;;;;;;;13.71;100.00;98320.97;4970875;28;20057;-77
2022/10/21 03:12:32;;;;;;;18.55;7.85;;;;;;;13.94;100.00;98329.13;4980379;28;20307;-75
2022/10/21 03:14:57;;;;;;;15.02;7.97;;;;;;;13.93;100.00;98294.81;4967340;28;20031;-79
2022/10/21 03:17:22;;;;;;;13.50;7.80;;;;;;;14.00;100.00;98300.16;4963116;28;20388;-79
2022/10/21 03:19:48;;;;;;;13.02;7.35;;;;;;;13.80;100.00;98249.66;4967260;28;20046;-77
2022/10/21 03:22:13;;;;;;;14.45;6.75;;;;;;;14.25;100.00;98298.00;4967236;28;20019;-77
2022/10/21 03:24:38;;;;;;;13.50;7.65;;;;;;;14.31;100.00;98277.16;4979280;28;20037;-77
2022/10/21 03:27:04;;;;;;;12.90;6.82;;;;;;;14.13;100.00;98263.72;4973742;28;20105;-77
2022/10/21 03:29:29;;;;;;;18.40;7.57;;;;;;;14.34;100.00;98284.03;4968698;28;20031;-76
2022/10/21 03:31:55;;;;;;;16.02;7.03;;;;;;;14.41;100.00;98284.72;4968106;28;20032;-75
2022/10/21 03:34:20;;;;;;;17.15;7.10;;;;;;;14.32;100.00;98280.69;4973396;28;20664;-76
2022/10/21 03:36:45;;;;;;;14.40;7.25;;;;;;;14.14;100.00;98270.78;4964268;28;20102;-76
2022/10/21 03:39:11;;;;;;;16.88;7.50;;;;;;;14.03;100.00;98296.94;4965499;28;20037;-77
2022/10/21 03:41:36;;;;;;;11.27;7.30;;;;;;;13.99;100.00;98293.03;4963923;28;20031;-76
2022/10/21 03:44:02;;;;;;;16.83;7.35;;;;;;;13.97;100.00;98301.47;4972485;28;20392;-77
2022/10/21 03:46:27;;;;;;;17.27;7.43;;;;;;;13.83;100.00;98294.59;4977890;28;20031;-77
2022/10/21 03:48:52;;;;;;;18.75;7.00;;;;;;;13.71;100.00;98280.19;4972403;28;20109;-78
2022/10/21 03:51:18;;;;;;;14.15;7.57;;;;;;;13.88;100.00;98307.47;4965370;28;20030;-77
2022/10/21 03:53:43;;;;;;;17.58;7.18;;;;;;;13.96;100.00;98315.28;4981033;28;20451;-76
2022/10/21 03:56:08;;;;;;;16.13;6.38;;;;;;;14.08;100.00;98301.69;4968074;28;20033;-73
2022/10/21 03:58:34;;;;;;;14.75;6.25;;;;;;;14.09;100.00;98296.00;4968493;28;20033;-74
2022/10/21 04:01:00;;;;;;;16.35;6.00;;;;;;;14.02;100.00;98266.22;4976496;28;20023;-75
2022/10/21 04:03:25;;;;;;;12.15;5.50;;;;;;;14.20;100.00;98288.88;4973034;28;20030;-72
2022/10/21 04:05:50;;;;;;;15.07;5.75;;;;;;;14.24;100.00;98268.28;4973934;28;20023;-70
2022/10/21 04:08:16;;;;;;;14.95;5.65;;;;;;;14.36;100.00;98288.16;4966258;28;20109;-72
2022/10/21 04:10:43;;;;;;;14.90;6.10;;;;;;;14.24;100.00;98265.56;4979149;28;20492;-75
2022/10/21 04:13:08;;;;;;;16.40;6.85;;;;;;;14.25;100.00;98264.50;4971831;28;20426;-74
2022/10/21 04:15:34;;;;;;;12.10;5.80;;;;;;;14.30;100.00;98282.81;4971356;28;20097;-73
2022/10/21 04:18:04;;;;;;;20.90;5.70;;;;;;;14.41;100.00;98290.97;4962139;28;20026;-76
2022/10/21 04:20:29;;;;;;;12.40;5.53;;;;;;;14.33;100.00;98288.63;4984380;28;20026;-76
2022/10/21 04:22:55;;;;;;;18.92;5.82;;;;;;;14.36;100.00;98271.00;4993482;28;20064;-75
2022/10/21 04:25:20;;;;;;;16.13;5.15;;;;;;;14.43;100.00;98299.72;4985740;28;20035;-79
2022/10/21 04:27:45;;;;;;;12.30;5.60;;;;;;;14.19;100.00;98285.34;4970402;28;20027;-78
2022/10/21 04:30:11;;;;;;;15.02;5.82;;;;;;;14.08;100.00;98293.53;4971134;28;20110;-79
2022/10/21 04:32:36;;;;;;;10.82;5.38;;;;;;;13.95;100.00;98283.72;4974022;28;20038;-81
2022/10/21 04:35:01;;;;;;;9.65;5.25;;;;;;;13.91;100.00;98307.84;4976896;28;20022;-73
2022/10/21 04:37:27;;;;;;;15.52;6.55;;;;;;;13.76;100.00;98293.91;4978653;28;20035;-83
2022/10/21 04:39:52;;;;;;;10.18;5.80;;;;;;;13.77;100.00;98293.66;4976383;28;20086;-78
2022/10/21 04:42:17;;;;;;;14.93;6.18;;;;;;;13.67;100.00;98296.13;4977046;28;20030;-77
2022/10/21 04:44:42;;;;;;;17.48;5.95;;;;;;;13.77;100.00;98311.84;4980870;28;20030;-74
2022/10/21 04:47:08;;;;;;;12.60;5.93;;;;;;;13.88;100.00;98318.34;4972537;28;20039;-74
2022/10/21 04:49:33;;;;;;;20.85;5.82;;;;;;;13.89;100.00;98296.38;4971401;28;20469;-71
2022/10/21 04:51:58;;;;;;;16.17;5.88;;;;;;;13.91;100.00;98301.56;4977758;28;20040;-70
2022/10/21 04:54:24;;;;;;;10.98;5.53;;;;;;;13.90;100.00;98299.91;4980694;28;20506;-73
2022/10/21 04:56:49;;;;;;;16.98;6.85;;;;;;;13.85;100.00;98292.47;4965582;28;20144;-73
2022/10/21 04:59:14;;;;;;;11.75;6.40;;;;;;;13.81;100.00;98289.41;4984667;28;20031;-72
2022/10/21 05:01:40;;;;;;;18.13;7.15;;;;;;;13.72;100.00;98266.34;4971955;28;20487;-72
2022/10/21 05:04:06;;;;;;;16.95;6.38;;;;;;;13.87;100.00;98286.81;4963777;28;20129;-76
2022/10/21 05:06:31;;;;;;;13.85;6.25;;;;;;;13.78;100.00;98303.47;4980704;28;20031;-75
2022/10/21 05:08:56;;;;;;;19.38;6.88;;;;;;;13.73;100.00;98308.78;4969641;28;20046;-71
2022/10/21 05:11:22;;;;;;;18.77;6.97;;;;;;;13.61;100.00;98291.63;4971098;28;20019;-74
2022/10/21 05:13:47;;;;;;;16.92;7.85;;;;;;;13.71;100.00;98310.91;4971268;28;20034;-72
2022/10/21 05:16:13;;;;;;;16.73;7.28;;;;;;;13.73;100.00;98287.03;4977553;28;20023;-77
2022/10/21 05:18:38;;;;;;;18.77;7.85;;;;;;;13.87;100.00;98300.41;4975755;28;20039;-77
2022/10/21 05:21:03;;;;;;;19.83;7.60;;;;;;;13.79;100.00;98291.53;4995512;28;20061;-77
2022/10/21 05:23:29;;;;;;;18.25;7.68;;;;;;;13.79;100.00;98288.81;4979757;28;20414;-69
2022/10/21 05:25:54;;;;;;;25.23;8.15;;;;;;;13.72;100.00;98307.13;4969192;28;20090;-67
2022/10/21 05:28:20;;;;;;;14.45;6.85;;;;;;;13.69;100.00;98309.50;4971174;28;20026;-71
2022/10/21 05:30:45;;;;;;;13.85;6.45;;;;;;;13.74;100.00;98315.06;4975068;28;20038;-72
2022/10/21 05:33:11;;;;;;;15.30;6.38;;;;;;;13.74;100.00;98315.88;4973216;28;20023;-71
2022/10/21 05:35:36;;;;;;;24.23;8.05;;;;;;;13.71;100.00;98319.06;4970610;28;20465;-73
2022/10/21 05:38:01;;;;;;;16.48;7.45;;;;;;;13.68;100.00;98303.25;4972279;28;20362;-71
2022/10/21 05:40:27;;;;;;;18.77;6.65;;;;;;;13.73;100.00;98314.22;4973357;28;20026;-73
2022/10/21 05:42:52;;;;;;;22.55;6.75;;;;;;;13.69;100.00;98314.94;4971013;28;20026;-73
2022/10/21 05:45:18;;;;;;;13.10;6.68;;;;;;;13.87;100.00;98317.53;4985642;28;20937;-73
2022/10/21 05:47:44;;;;;;;16.50;6.15;;;;;;;13.79;100.00;98302.41;4979805;28;20392;-73
2022/10/21 05:50:11;;;;;;;18.80;5.55;;;;;;;13.93;100.00;98326.63;4974265;28;20042;-72
2022/10/21 05:52:37;;;;;;;17.20;5.93;;;;;;;13.93;100.00;98315.75;4966630;28;20027;-73
2022/10/21 05:55:02;;;;;;;11.65;5.75;;;;;;;14.09;100.00;98317.75;4964607;28;20041;-72
2022/10/21 05:57:30;;;;;;;16.63;5.55;;;;;;;14.07;100.00;98319.91;4967305;28;20035;-71
2022/10/21 05:59:56;;;;;;;14.80;6.33;;;;;;;14.12;100.00;98324.59;4965323;28;20463;-71
2022/10/21 06:02:21;;;;;;;18.02;7.47;;;;;;;14.11;100.00;98312.09;4968384;28;20066;-71
2022/10/21 06:04:46;;;;;;;20.17;7.10;;;;;;;14.18;100.00;98319.06;4967739;28;20042;-71
2022/10/21 06:07:12;;;;;;;17.13;7.88;;;;;;;14.11;100.00;98302.03;4982218;28;20030;-71
2022/10/21 06:09:37;;;;;;;19.52;7.63;;;;;;;14.16;100.00;98307.56;4965663;28;20030;-71
2022/10/21 06:12:02;;;;;;;20.52;7.78;;;;;;;14.19;100.00;98319.88;4968656;28;20026;-71
2022/10/21 06:14:28;;;;;;;17.80;6.88;;;;;;;14.21;100.00;98318.56;4968903;28;20037;-72
2022/10/21 06:16:54;;;;;;;17.17;7.05;;;;;;;14.31;100.00;98314.44;4967810;28;20153;-71
2022/10/21 06:19:19;;;;;;;12.77;5.50;;;;;;;14.33;100.00;98298.66;4973374;28;20157;-75
2022/10/21 06:21:46;;;;;;;12.52;5.72;;;;;;;14.28;100.00;98293.97;4984627;28;20216;-76
2022/10/21 06:24:12;;;;;;;13.70;5.40;;;;;;;14.22;100.00;98284.03;4963695;28;20840;-75
2022/10/21 06:26:37;;;;;;;11.50;5.20;;;;;;;14.23;100.00;98275.63;4971999;28;20033;-73
2022/10/21 06:29:02;;;;;;;15.15;4.82;;;;;;;14.29;100.00;98276.56;4977643;28;20035;-77
2022/10/21 06:31:28;;;;;;;20.95;5.03;;;;;;;14.33;100.00;98282.34;4975376;28;20465;-78
2022/10/21 06:33:53;;;;;;;15.25;4.20;;;;;;;14.20;100.00;98288.88;4965156;28;20042;-73
2022/10/21 06:36:18;;;;;;;10.55;4.78;;;;;;;14.22;100.00;98297.63;4972579;28;20125;-73
2022/10/21 06:38:44;;;;;;;83.38;8.68;;;;;;;14.33;100.00;98312.28;4978964;28;20027;-74
2022/10/21 06:41:12;;;;;;;22.88;6.38;;;;;;;14.27;100.00;98302.38;4968731;28;20511;-72
2022/10/21 06:43:37;;;;;;;14.30;5.28;;;;;;;14.38;100.00;98328.72;4973123;28;20026;-71
2022/10/21 06:46:06;;;;;;;17.10;4.97;;;;;;;14.29;100.00;98308.41;4975608;28;20057;-73
2022/10/21 06:48:32;;;;;;;14.48;4.70;;;;;;;14.39;100.00;98320.31;4965174;28;20061;-72
2022/10/21 06:51:06;;;;;;;14.18;5.18;;;;;;;14.41;100.00;98326.38;4964669;28;20480;-75
2022/10/21 06:53:32;;;;;;;16.95;4.63;;;;;;;14.34;100.00;98316.66;4970793;28;20037;-74
2022/10/21 06:56:08;;;;;;;14.65;5.20;;;;;;;14.41;100.00;98328.25;4973584;28;20026;-77
2022/10/21 06:58:34;;;;;;;16.75;5.15;;;;;;;14.41;100.00;98334.53;4979878;28;20511;-70
2022/10/21 07:01:11;;;;;;;14.93;4.95;;;;;;;14.44;100.00;98325.88;4970503;28;20039;-72
2022/10/21 07:03:37;;;;;;;11.70;4.82;;;;;;;14.38;100.00;98334.16;4974494;28;20041;-76
2022/10/21 07:06:02;;;;;;;14.98;5.30;;;;;;;14.31;100.00;98347.09;4978011;28;20018;-77
2022/10/21 07:08:29;;;;;;;13.45;5.05;;;;;;;14.35;100.00;98349.06;4973720;28;20022;-73
2022/10/21 07:10:54;;;;;;;12.30;5.10;;;;;;;14.30;100.00;98342.69;4972991;28;20026;-78
2022/10/21 07:13:21;;;;;;;17.25;5.13;;;;;;;14.43;100.00;98392.25;4973275;28;20081;-75
2022/10/21 07:15:46;;;;;;;13.20;5.15;;;;;;;14.35;100.00;98405.41;4991385;28;20492;-76
2022/10/21 07:18:12;;;;;;;12.38;5.65;;;;;;;14.12;100.00;98388.03;4981729;28;20037;-77
2022/10/21 07:20:37;;;;;;;17.65;6.75;;;;;;;14.22;100.00;98395.59;4967741;28;20481;-79
2022/10/21 07:23:02;;;;;;;13.15;5.22;;;;;;;14.33;100.00;98383.03;4966629;28;20114;-74
2022/10/21 07:25:28;;;;;;;17.63;5.60;;;;;;;14.27;100.00;98370.38;4967879;28;20150;-73
2022/10/21 07:27:53;;;;;;;13.30;6.75;;;;;;;14.21;100.00;98356.66;4974736;28;20031;-72
2022/10/21 07:30:18;;;;;;;13.00;5.07;;;;;;;14.40;100.00;98362.78;4972191;28;20022;-73
2022/10/21 07:32:44;;;;;;;24.00;4.72;;;;;;;14.43;100.00;98362.31;4974084;28;20085;-71
2022/10/21 07:35:09;;;;;;;11.43;4.00;;;;;;;14.39;100.00;98338.56;4973476;28;20015;-74
2022/10/21 07:37:34;;;;;;;14.45;4.18;;;;;;;14.32;100.00;98283.41;4970083;28;20030;-73
2022/10/21 07:40:00;;;;;;;14.32;3.65;;;;;;;14.60;100.00;98299.00;4973768;28;20486;-74
2022/10/21 07:42:26;;;;;;;9.82;4.30;;;;;;;14.60;100.00;98297.09;4975120;28;20618;-69
2022/10/21 07:44:56;;;;;;;16.73;4.75;;;;;;;14.62;100.00;98308.59;4969935;28;20053;-70
2022/10/21 07:47:21;;;;;;;11.77;4.22;;;;;;;14.64;100.00;98306.44;4969364;28;20039;-71
2022/10/21 07:49:47;;;;;;;15.88;4.60;;;;;;;14.71;100.00;98321.81;4968025;28;20025;-71
2022/10/21 07:52:12;;;;;;;20.00;5.18;;;;;;;14.76;100.00;98335.53;4972874;28;20027;-72
2022/10/21 07:54:37;;;;;;;15.43;4.60;;;;;;;14.76;100.00;98335.53;4969722;28;20026;-72
2022/10/21 07:57:02;;;;;;;10.20;4.28;;;;;;;14.72;100.00;98342.50;4973122;28;20019;-72
2022/10/21 07:59:28;;;;;;;11.70;4.85;;;;;;;14.69;100.00;98381.94;4967163;28;20456;-72
2022/10/21 08:01:53;;;;;;;12.82;5.03;;;;;;;14.58;100.00;98377.38;4975726;28;20442;-72
2022/10/21 08:04:21;;;;;;;11.05;4.32;;;;;;;14.54;100.00;98368.00;4979571;28;20039;-70
2022/10/21 08:06:47;;;;;;;21.33;6.22;;;;;;;14.44;100.00;98335.94;4972637;28;20559;-72
2022/10/21 08:09:14;;;;;;;13.02;4.57;;;;;;;14.57;100.00;98357.47;4973951;28;20026;-71
2022/10/21 08:11:40;;;;;;;14.98;5.30;;;;;;;14.71;100.00;98325.34;4969095;28;20031;-73
2022/10/21 08:14:07;;;;;;;14.65;4.32;;;;;;;14.74;100.00;98343.09;4969009;28;20110;-78
2022/10/21 08:16:32;;;;;;;18.45;5.30;;;;;;;14.61;100.00;98345.03;4960066;28;20027;-75
2022/10/21 08:18:59;;;;;;;15.68;5.65;;;;;;;14.66;100.00;98347.84;4971745;28;20479;-80
2022/10/21 08:21:26;;;;;;;15.48;5.38;;;;;;;14.76;100.00;98328.19;4978059;28;20031;-76
2022/10/21 08:23:51;;;;;;;18.55;4.10;;;;;;;14.93;100.00;98336.41;4969152;28;20031;-71
2022/10/21 08:26:16;;;;;;;10.80;3.60;;;;;;;14.89;100.00;98319.72;4968871;28;20514;-72
2022/10/21 08:28:43;;;;;;;8.93;3.78;;;;;;;15.02;100.00;98340.41;4967043;28;20113;-72
2022/10/21 08:31:17;;;;;;;12.60;3.72;;;;;;;15.04;100.00;98341.00;4969668;28;20029;-72
2022/10/21 08:33:43;;;;;;;8.70;3.35;;;;;;;15.02;100.00;98345.03;4968219;28;20023;-70
2022/10/21 08:36:20;;;;;;;8.10;4.30;;;;;;;15.03;100.00;98346.66;4970581;28;20551;-71
2022/10/21 08:38:46;;;;;;;13.50;4.18;;;;;;;14.87;100.00;98334.66;4971799;28;20092;-75
2022/10/21 08:41:30;;;;;;;19.23;4.32;;;;;;;15.00;100.00;98352.63;4961669;28;21101;-71
2022/10/21 08:43:58;;;;;;;9.85;3.92;;;;;;;15.04;100.00;98348.34;4969221;28;20034;-72
2022/10/21 08:46:28;;;;;;;15.00;4.63;;;;;;;15.05;100.00;98344.53;4973168;28;20022;-76
2022/10/21 08:49:18;;;;;;;8.10;3.47;;;;;;;14.98;100.00;98339.22;4976285;28;20093;-75
2022/10/21 08:52:00;;;;;;;10.38;3.85;;;;;;;15.00;100.00;98339.81;4952640;28;20059;-76
2022/10/21 08:54:38;;;;;;;14.40;4.00;;;;;;;14.98;100.00;98344.66;4969255;28;20432;-75
2022/10/21 08:57:04;;;;;;;13.05;4.10;;;;;;;14.94;100.00;98343.50;4963121;28;20023;-76
2022/10/21 08:59:29;;;;;;;14.23;3.58;;;;;;;14.86;100.00;98325.66;4969082;28;20089;-75
2022/10/21 09:02:04;;;;;;;14.00;3.95;;;;;;;14.97;100.00;98337.56;4976665;28;20049;-74
2022/10/21 09:04:42;;;;;;;13.10;4.03;;;;;;;14.80;100.00;98332.09;4965460;28;20035;-72
2022/10/21 09:07:07;;;;;;;14.93;4.53;;;;;;;14.86;100.00;98346.63;4962864;28;20027;-70
2022/10/21 09:09:35;;;;;;;12.07;4.50;;;;;;;14.93;100.00;98352.75;4967109;28;20050;-70
2022/10/21 09:12:52;;;;;;;15.25;4.85;;;;;;;14.89;100.00;98362.47;4969482;28;20030;-75
2022/10/21 09:15:20;;;;;;;11.80;4.45;;;;;;;15.00;100.00;98366.22;4957463;28;20043;-73
2022/10/21 09:18:01;;;;;;;10.27;4.57;;;;;;;14.87;100.00;98402.75;4968702;28;20106;-73
2022/10/21 09:20:34;;;;;;;12.55;4.88;;;;;;;14.83;100.00;98393.41;4970602;28;20473;-75
2022/10/21 09:23:21;;;;;;;19.77;6.22;;;;;;;14.84;100.00;98403.22;4973027;28;20041;-75
2022/10/21 09:25:58;;;;;;;15.38;5.30;;;;;;;14.70;100.00;98372.72;4968754;28;20019;-77
2022/10/21 09:28:25;;;;;;;19.23;5.47;;;;;;;14.74;100.00;98408.47;4967931;28;20031;-75
2022/10/21 09:30:52;;;;;;;13.73;4.57;;;;;;;14.76;100.00;98377.19;4971145;28;20027;-76
2022/10/21 09:33:27;;;;;;;16.42;5.00;;;;;;;15.00;100.00;98415.25;4973131;28;20034;-74
2022/10/21 09:36:17;;;;;;;12.18;4.32;;;;;;;14.94;100.00;98438.84;4970253;28;20027;-72
2022/10/21 09:39:01;;;;;;;11.48;5.18;;;;;;;15.03;100.00;98417.50;4966279;28;20031;-72
2022/10/21 09:41:32;;;;;;;16.63;5.70;;;;;;;15.06;100.00;98422.47;4969282;28;20022;-73
2022/10/21 09:43:58;;;;;;;14.60;5.55;;;;;;;15.05;100.00;98410.75;4968093;28;20496;-73
2022/10/21 09:46:24;;;;;;;15.05;5.38;;;;;;;14.99;100.00;98419.06;4974038;28;20030;-73
2022/10/21 09:48:54;;;;;;;12.85;5.15;;;;;;;14.97;100.00;98429.38;4968297;28;20026;-73
2022/10/21 09:51:27;;;;;;;13.57;5.15;;;;;;;15.11;100.00;98433.47;4966685;28;20501;-73
2022/10/21 09:54:01;;;;;;;10.60;5.22;;;;;;;15.03;100.00;98450.19;4963967;28;20058;-73
2022/10/21 09:56:32;;;;;;;19.48;5.88;;;;;;;14.85;100.00;98438.38;4972881;28;20512;-74
2022/10/21 09:59:17;;;;;;;15.52;5.50;;;;;;;14.92;100.00;98461.97;4973807;28;20191;-74
2022/10/21 10:01:44;;;;;;;16.95;5.40;;;;;;;14.89;100.00;98485.06;4973432;28;20023;-74
2022/10/21 10:04:21;;;;;;;14.90;5.65;;;;;;;14.80;100.00;98486.47;4974833;28;20034;-73
2022/10/21 10:06:47;;;;;;;15.07;5.63;;;;;;;14.82;100.00;98478.91;4963648;28;20026;-78
2022/10/21 10:09:28;;;;;;;14.30;5.47;;;;;;;14.82;100.00;98490.63;4971275;28;20480;-77
2022/10/21 10:12:13;;;;;;;16.92;5.57;;;;;;;14.94;100.00;98468.81;4967531;28;20097;-75
2022/10/21 10:14:44;;;;;;;12.88;5.10;;;;;;;15.04;100.00;98474.50;4977216;28;21946;-76
2022/10/21 10:17:22;;;;;;;12.50;4.80;;;;;;;15.16;100.00;98474.44;4984797;28;20041;-79
2022/10/21 10:20:03;;;;;;;11.68;5.40;;;;;;;15.25;100.00;98472.19;4970266;28;20492;-76
2022/10/21 10:22:34;;;;;;;10.73;4.90;;;;;;;15.35;100.00;98464.19;4967787;28;20563;-76
2022/10/21 10:25:21;;;;;;;12.48;4.97;;;;;;;15.34;100.00;98463.38;4974066;28;20034;-76
2022/10/21 10:27:50;;;;;;;15.18;4.20;;;;;;;15.25;100.00;98448.47;5002156;28;20118;-72
2022/10/21 10:30:16;;;;;;;12.38;4.30;;;;;;;15.30;100.00;98472.25;4977506;28;20054;-72
2022/10/21 10:32:42;;;;;;;13.73;4.40;;;;;;;15.03;100.00;98453.75;4977669;28;20035;-73
2022/10/21 10:35:28;;;;;;;10.15;3.80;;;;;;;15.19;100.00;98456.78;4974538;28;20435;-78
2022/10/21 10:37:57;;;;;;;11.45;4.15;;;;;;;15.25;100.00;98442.22;4979035;28;20026;-76
2022/10/21 10:40:27;;;;;;;13.93;4.07;;;;;;;15.25;100.00;98423.13;4969745;28;20034;-74
2022/10/21 10:43:05;;;;;;;14.27;5.05;;;;;;;15.39;100.00;98420.94;4970054;28;20081;-75
2022/10/21 10:45:30;;;;;;;12.18;4.80;;;;;;;15.52;100.00;98456.91;4970723;28;20556;-72
2022/10/21 10:47:59;;;;;;;9.68;4.25;;;;;;;15.73;100.00;98460.03;4969200;28;20036;-73
2022/10/21 10:50:37;;;;;;;9.80;4.70;;;;;;;15.61;100.00;98468.22;4969041;28;20033;-75
2022/10/21 10:53:26;;;;;;;14.40;5.68;;;;;;;15.64;100.00;98458.72;4957251;28;20031;-75
2022/10/21 10:55:59;;;;;;;13.40;5.05;;;;;;;15.57;100.00;98448.81;4969231;28;20022;-73
2022/10/21 10:58:28;;;;;;;16.20;5.10;;;;;;;15.61;100.00;98440.97;4969292;28;20057;-72
2022/10/21 11:00:57;;;;;;;11.57;5.13;;;;;;;15.77;100.00;98434.75;4965127;28;20066;-72
2022/10/21 11:03:32;;;;;;;11.50;4.07;;;;;;;15.77;100.00;98439.38;4962179;28;20042;-71
2022/10/21 11:06:06;;;;;;;9.55;3.85;;;;;;;15.82;100.00;98431.28;4969749;28;20026;-71
2022/10/21 11:08:40;;;;;;;13.43;4.07;;;;;;;16.08;100.00;98442.63;4966701;28;20034;-70
2022/10/21 11:11:19;;;;;;;15.50;4.20;;;;;;;16.03;100.00;98426.16;4965206;28;20042;-72
2022/10/21 11:13:44;;;;;;;10.27;3.50;;;;;;;16.31;100.00;98439.72;4972770;28;20528;-73
2022/10/21 11:16:22;;;;;;;8.55;4.00;;;;;;;16.44;100.00;98433.91;4967669;28;20114;-69
2022/10/21 11:19:10;;;;;;;8.70;3.17;;;;;;;16.47;100.00;98438.03;4956087;28;20113;-70
2022/10/21 11:21:50;;;;;;;9.55;3.35;;;;;;;16.65;100.00;98431.47;4966221;28;20445;-71
2022/10/21 11:24:38;;;;;;;9.90;3.30;;;;;;;16.65;100.00;98402.25;4963899;28;20150;-71
2022/10/21 11:27:18;;;;;;;11.18;3.45;;;;;;;16.63;100.00;98417.25;4966723;28;20038;-74